sensor_id;sensor_type;location;lat;lon;timestamp;P1;durP1;ratioP1;P2;durP2;ratioP2
46363;SDS011;32071;49.036;9.344;2024-03-23T00:54:38;7.57;;;5.40;;
46363;SDS011;32071;49.036;9.344;2024-03-23T00:57:03;7.60;;;5.27;;
46363;SDS011;32071;49.036;9.344;2024-03-23T00:59:29;8.43;;;5.03;;
46363;SDS011;32071;49.036;9.344;2024-03-23T01:01:56;7.07;;;5.33;;
46363;SDS011;32071;49.036;9.344;2024-03-23T01:04:21;7.30;;;5.50;;
46363;SDS011;32071;49.036;9.344;2024-03-23T01:06:47;8.53;;;5.77;;
46363;SDS011;32071;49.036;9.344;2024-03-23T01:09:14;8.17;;;5.30;;
46363;SDS011;32071;49.036;9.344;2024-03-23T01:11:40;6.00;;;5.10;;
46363;SDS011;32071;49.036;9.344;2024-03-23T01:14:05;5.73;;;5.13;;
46363;SDS011;32071;49.036;9.344;2024-03-23T01:16:31;11.30;;;5.20;;
46363;SDS011;32071;49.036;9.344;2024-03-23T01:18:57;6.70;;;5.23;;
46363;SDS011;32071;49.036;9.344;2024-03-23T01:21:23;7.27;;;5.30;;
46363;SDS011;32071;49.036;9.344;2024-03-23T01:23:49;11.57;;;5.20;;
46363;SDS011;32071;49.036;9.344;2024-03-23T01:26:14;8.57;;;5.90;;
46363;SDS011;32071;49.036;9.344;2024-03-23T01:28:40;7.67;;;5.50;;
46363;SDS011;32071;49.036;9.344;2024-03-23T01:31:06;6.93;;;5.20;;
46363;SDS011;32071;49.036;9.344;2024-03-23T01:33:31;7.97;;;5.33;;
46363;SDS011;32071;49.036;9.344;2024-03-23T01:35:57;8.63;;;5.50;;
46363;SDS011;32071;49.036;9.344;2024-03-23T01:38:23;8.23;;;5.53;;
46363;SDS011;32071;49.036;9.344;2024-03-23T01:40:48;6.33;;;5.17;;
46363;SDS011;32071;49.036;9.344;2024-03-23T01:43:14;8.50;;;5.67;;
46363;SDS011;32071;49.036;9.344;2024-03-23T01:45:39;7.20;;;5.13;;
46363;SDS011;32071;49.036;9.344;2024-03-23T01:48:05;6.63;;;5.20;;
46363;SDS011;32071;49.036;9.344;2024-03-23T01:50:31;9.70;;;5.83;;
46363;SDS011;32071;49.036;9.344;2024-03-23T01:53:03;7.23;;;5.37;;
46363;SDS011;32071;49.036;9.344;2024-03-23T01:55:32;6.80;;;5.70;;
46363;SDS011;32071;49.036;9.344;2024-03-23T01:57:58;7.73;;;5.67;;
46363;SDS011;32071;49.036;9.344;2024-03-23T02:00:23;6.47;;;4.90;;
46363;SDS011;32071;49.036;9.344;2024-03-23T02:02:49;8.70;;;5.40;;
46363;SDS011;32071;49.036;9.344;2024-03-23T02:05:15;7.07;;;5.70;;
46363;SDS011;32071;49.036;9.344;2024-03-23T02:07:41;8.40;;;5.67;;
46363;SDS011;32071;49.036;9.344;2024-03-23T02:10:08;7.17;;;5.90;;
46363;SDS011;32071;49.036;9.344;2024-03-23T02:12:40;8.83;;;5.63;;
46363;SDS011;32071;49.036;9.344;2024-03-23T02:15:06;6.37;;;5.40;;
46363;SDS011;32071;49.036;9.344;2024-03-23T02:17:34;11.03;;;5.80;;
46363;SDS011;32071;49.036;9.344;2024-03-23T02:20:00;7.80;;;6.13;;
46363;SDS011;32071;49.036;9.344;2024-03-23T02:22:38;10.07;;;6.70;;
46363;SDS011;32071;49.036;9.344;2024-03-23T02:25:04;10.93;;;6.70;;
46363;SDS011;32071;49.036;9.344;2024-03-23T02:27:30;10.43;;;6.47;;
46363;SDS011;32071;49.036;9.344;2024-03-23T02:29:56;8.07;;;6.63;;
46363;SDS011;32071;49.036;9.344;2024-03-23T02:32:22;8.33;;;6.70;;
46363;SDS011;32071;49.036;9.344;2024-03-23T02:34:47;9.13;;;6.83;;
46363;SDS011;32071;49.036;9.344;2024-03-23T02:37:13;7.83;;;6.63;;
46363;SDS011;32071;49.036;9.344;2024-03-23T02:39:38;8.07;;;5.93;;
46363;SDS011;32071;49.036;9.344;2024-03-23T02:42:04;8.07;;;6.97;;
46363;SDS011;32071;49.036;9.344;2024-03-23T02:44:30;6.83;;;5.70;;
46363;SDS011;32071;49.036;9.344;2024-03-23T02:46:56;7.03;;;5.50;;
46363;SDS011;32071;49.036;9.344;2024-03-23T02:49:22;10.30;;;5.67;;
46363;SDS011;32071;49.036;9.344;2024-03-23T02:51:48;8.27;;;5.93;;
46363;SDS011;32071;49.036;9.344;2024-03-23T02:54:14;6.90;;;5.30;;
46363;SDS011;32071;49.036;9.344;2024-03-23T02:56:40;6.23;;;5.63;;
46363;SDS011;32071;49.036;9.344;2024-03-23T02:59:05;7.30;;;6.57;;
46363;SDS011;32071;49.036;9.344;2024-03-23T03:01:31;6.10;;;5.50;;
46363;SDS011;32071;49.036;9.344;2024-03-23T03:03:56;8.67;;;6.50;;
46363;SDS011;32071;49.036;9.344;2024-03-23T03:06:25;6.63;;;5.83;;
46363;SDS011;32071;49.036;9.344;2024-03-23T03:08:51;10.50;;;6.87;;
46363;SDS011;32071;49.036;9.344;2024-03-23T03:11:17;10.40;;;7.13;;
46363;SDS011;32071;49.036;9.344;2024-03-23T03:13:42;8.43;;;5.60;;
46363;SDS011;32071;49.036;9.344;2024-03-23T03:16:11;6.03;;;5.07;;
46363;SDS011;32071;49.036;9.344;2024-03-23T03:18:37;8.60;;;6.23;;
46363;SDS011;32071;49.036;9.344;2024-03-23T03:21:06;6.70;;;6.00;;
46363;SDS011;32071;49.036;9.344;2024-03-23T03:23:38;5.80;;;5.00;;
46363;SDS011;32071;49.036;9.344;2024-03-23T03:26:05;7.97;;;5.77;;
46363;SDS011;32071;49.036;9.344;2024-03-23T03:28:31;7.73;;;5.70;;
46363;SDS011;32071;49.036;9.344;2024-03-23T03:30:58;11.03;;;6.10;;
46363;SDS011;32071;49.036;9.344;2024-03-23T03:33:24;6.07;;;5.30;;
46363;SDS011;32071;49.036;9.344;2024-03-23T03:35:50;13.10;;;5.10;;
46363;SDS011;32071;49.036;9.344;2024-03-23T03:38:17;15.00;;;8.10;;
46363;SDS011;32071;49.036;9.344;2024-03-23T03:40:43;13.50;;;7.50;;
46363;SDS011;32071;49.036;9.344;2024-03-23T03:43:09;11.43;;;7.20;;
46363;SDS011;32071;49.036;9.344;2024-03-23T03:45:34;9.83;;;6.47;;
46363;SDS011;32071;49.036;9.344;2024-03-23T03:48:00;9.00;;;7.17;;
46363;SDS011;32071;49.036;9.344;2024-03-23T03:50:25;10.40;;;6.83;;
46363;SDS011;32071;49.036;9.344;2024-03-23T03:52:51;9.27;;;5.80;;
46363;SDS011;32071;49.036;9.344;2024-03-23T03:55:16;6.80;;;4.83;;
46363;SDS011;32071;49.036;9.344;2024-03-23T03:57:42;8.57;;;6.03;;
46363;SDS011;32071;49.036;9.344;2024-03-23T04:00:08;13.27;;;8.20;;
46363;SDS011;32071;49.036;9.344;2024-03-23T04:02:36;11.80;;;8.60;;
46363;SDS011;32071;49.036;9.344;2024-03-23T04:05:02;7.87;;;6.00;;
46363;SDS011;32071;49.036;9.344;2024-03-23T04:07:28;8.37;;;6.60;;
46363;SDS011;32071;49.036;9.344;2024-03-23T04:09:54;11.30;;;5.33;;
46363;SDS011;32071;49.036;9.344;2024-03-23T04:12:19;10.10;;;6.30;;
46363;SDS011;32071;49.036;9.344;2024-03-23T04:14:45;8.60;;;6.77;;
46363;SDS011;32071;49.036;9.344;2024-03-23T04:17:11;9.47;;;6.23;;
46363;SDS011;32071;49.036;9.344;2024-03-23T04:19:36;13.67;;;7.67;;
46363;SDS011;32071;49.036;9.344;2024-03-23T04:22:02;15.90;;;10.10;;
46363;SDS011;32071;49.036;9.344;2024-03-23T04:24:28;24.80;;;14.00;;
46363;SDS011;32071;49.036;9.344;2024-03-23T04:26:54;17.83;;;10.23;;
46363;SDS011;32071;49.036;9.344;2024-03-23T04:29:20;13.33;;;8.13;;
46363;SDS011;32071;49.036;9.344;2024-03-23T04:31:45;12.83;;;8.73;;
46363;SDS011;32071;49.036;9.344;2024-03-23T04:34:11;9.47;;;7.90;;
46363;SDS011;32071;49.036;9.344;2024-03-23T04:36:38;12.37;;;8.67;;
46363;SDS011;32071;49.036;9.344;2024-03-23T04:39:03;14.90;;;9.30;;
46363;SDS011;32071;49.036;9.344;2024-03-23T04:41:29;15.30;;;11.17;;
46363;SDS011;32071;49.036;9.344;2024-03-23T04:43:55;12.77;;;10.07;;
46363;SDS011;32071;49.036;9.344;2024-03-23T04:46:20;19.43;;;10.87;;
46363;SDS011;32071;49.036;9.344;2024-03-23T04:48:46;15.93;;;9.87;;
46363;SDS011;32071;49.036;9.344;2024-03-23T04:51:22;15.00;;;10.70;;
46363;SDS011;32071;49.036;9.344;2024-03-23T04:53:48;18.00;;;10.77;;
46363;SDS011;32071;49.036;9.344;2024-03-23T04:56:14;13.70;;;10.27;;
46363;SDS011;32071;49.036;9.344;2024-03-23T04:58:42;16.37;;;10.83;;
46363;SDS011;32071;49.036;9.344;2024-03-23T05:01:08;15.87;;;10.63;;
46363;SDS011;32071;49.036;9.344;2024-03-23T05:03:35;17.27;;;11.10;;
46363;SDS011;32071;49.036;9.344;2024-03-23T05:06:01;15.33;;;11.53;;
46363;SDS011;32071;49.036;9.344;2024-03-23T05:08:26;19.90;;;11.80;;
46363;SDS011;32071;49.036;9.344;2024-03-23T05:10:52;17.17;;;13.40;;
46363;SDS011;32071;49.036;9.344;2024-03-23T05:13:18;17.67;;;12.80;;
46363;SDS011;32071;49.036;9.344;2024-03-23T05:15:43;21.10;;;14.30;;
46363;SDS011;32071;49.036;9.344;2024-03-23T05:18:09;22.60;;;13.67;;
46363;SDS011;32071;49.036;9.344;2024-03-23T05:20:35;21.00;;;13.80;;
46363;SDS011;32071;49.036;9.344;2024-03-23T05:23:01;23.70;;;15.47;;
46363;SDS011;32071;49.036;9.344;2024-03-23T05:25:26;21.90;;;14.53;;
46363;SDS011;32071;49.036;9.344;2024-03-23T05:27:52;23.60;;;14.00;;
46363;SDS011;32071;49.036;9.344;2024-03-23T05:30:17;26.50;;;15.43;;
46363;SDS011;32071;49.036;9.344;2024-03-23T05:32:43;21.07;;;14.50;;
46363;SDS011;32071;49.036;9.344;2024-03-23T05:35:09;22.87;;;13.97;;
46363;SDS011;32071;49.036;9.344;2024-03-23T05:37:35;22.67;;;14.47;;
46363;SDS011;32071;49.036;9.344;2024-03-23T05:40:02;19.30;;;13.60;;
46363;SDS011;32071;49.036;9.344;2024-03-23T05:42:28;24.40;;;14.13;;
46363;SDS011;32071;49.036;9.344;2024-03-23T05:44:54;24.50;;;13.90;;
46363;SDS011;32071;49.036;9.344;2024-03-23T05:47:19;23.40;;;13.37;;
46363;SDS011;32071;49.036;9.344;2024-03-23T05:49:45;23.10;;;12.90;;
46363;SDS011;32071;49.036;9.344;2024-03-23T05:52:11;19.00;;;11.20;;
46363;SDS011;32071;49.036;9.344;2024-03-23T05:54:37;13.50;;;8.83;;
46363;SDS011;32071;49.036;9.344;2024-03-23T05:57:03;14.97;;;9.80;;
46363;SDS011;32071;49.036;9.344;2024-03-23T05:59:29;12.17;;;8.20;;
46363;SDS011;32071;49.036;9.344;2024-03-23T06:01:56;12.70;;;8.63;;
46363;SDS011;32071;49.036;9.344;2024-03-23T06:04:21;12.10;;;7.57;;
46363;SDS011;32071;49.036;9.344;2024-03-23T06:06:47;13.37;;;8.93;;
46363;SDS011;32071;49.036;9.344;2024-03-23T06:09:13;14.23;;;9.77;;
46363;SDS011;32071;49.036;9.344;2024-03-23T06:11:40;16.00;;;10.43;;
46363;SDS011;32071;49.036;9.344;2024-03-23T06:14:05;16.10;;;9.20;;
46363;SDS011;32071;49.036;9.344;2024-03-23T06:16:31;17.40;;;9.43;;
46363;SDS011;32071;49.036;9.344;2024-03-23T06:18:56;17.67;;;9.20;;
46363;SDS011;32071;49.036;9.344;2024-03-23T06:21:23;16.40;;;9.10;;
46363;SDS011;32071;49.036;9.344;2024-03-23T06:23:52;13.03;;;8.57;;
46363;SDS011;32071;49.036;9.344;2024-03-23T06:26:18;14.27;;;8.20;;
46363;SDS011;32071;49.036;9.344;2024-03-23T06:28:45;11.33;;;8.47;;
46363;SDS011;32071;49.036;9.344;2024-03-23T06:31:10;10.03;;;6.67;;
46363;SDS011;32071;49.036;9.344;2024-03-23T06:33:36;12.77;;;7.67;;
46363;SDS011;32071;49.036;9.344;2024-03-23T06:36:03;12.50;;;7.13;;
46363;SDS011;32071;49.036;9.344;2024-03-23T06:38:29;12.00;;;7.63;;
46363;SDS011;32071;49.036;9.344;2024-03-23T06:40:55;11.07;;;6.67;;
46363;SDS011;32071;49.036;9.344;2024-03-23T06:43:21;11.07;;;7.30;;
46363;SDS011;32071;49.036;9.344;2024-03-23T06:45:55;11.00;;;7.03;;
46363;SDS011;32071;49.036;9.344;2024-03-23T06:48:21;10.73;;;6.50;;
46363;SDS011;32071;49.036;9.344;2024-03-23T06:50:47;10.70;;;7.70;;
46363;SDS011;32071;49.036;9.344;2024-03-23T06:53:13;11.97;;;7.13;;
46363;SDS011;32071;49.036;9.344;2024-03-23T06:55:39;9.37;;;6.40;;
46363;SDS011;32071;49.036;9.344;2024-03-23T06:58:05;6.97;;;4.70;;
46363;SDS011;32071;49.036;9.344;2024-03-23T07:00:32;5.87;;;4.03;;
46363;SDS011;32071;49.036;9.344;2024-03-23T07:02:59;5.50;;;4.03;;
46363;SDS011;32071;49.036;9.344;2024-03-23T07:05:25;5.57;;;2.97;;
46363;SDS011;32071;49.036;9.344;2024-03-23T07:07:50;3.00;;;2.70;;
46363;SDS011;32071;49.036;9.344;2024-03-23T07:10:16;4.30;;;2.67;;
46363;SDS011;32071;49.036;9.344;2024-03-23T07:12:42;4.20;;;3.00;;
46363;SDS011;32071;49.036;9.344;2024-03-23T07:15:09;2.77;;;2.47;;
46363;SDS011;32071;49.036;9.344;2024-03-23T07:17:36;3.53;;;2.50;;
46363;SDS011;32071;49.036;9.344;2024-03-23T07:20:02;2.40;;;1.90;;
46363;SDS011;32071;49.036;9.344;2024-03-23T07:22:29;2.57;;;1.90;;
46363;SDS011;32071;49.036;9.344;2024-03-23T07:24:55;3.80;;;2.00;;
46363;SDS011;32071;49.036;9.344;2024-03-23T07:27:21;3.80;;;2.60;;
46363;SDS011;32071;49.036;9.344;2024-03-23T07:29:47;4.90;;;2.70;;
46363;SDS011;32071;49.036;9.344;2024-03-23T07:32:13;4.40;;;2.70;;
46363;SDS011;32071;49.036;9.344;2024-03-23T07:34:38;3.10;;;2.10;;
46363;SDS011;32071;49.036;9.344;2024-03-23T07:37:04;3.17;;;2.10;;
46363;SDS011;32071;49.036;9.344;2024-03-23T07:39:29;3.70;;;2.60;;
46363;SDS011;32071;49.036;9.344;2024-03-23T07:41:57;3.17;;;2.43;;
46363;SDS011;32071;49.036;9.344;2024-03-23T07:44:23;5.73;;;2.90;;
46363;SDS011;32071;49.036;9.344;2024-03-23T07:46:48;4.00;;;2.27;;
46363;SDS011;32071;49.036;9.344;2024-03-23T07:49:14;3.93;;;2.33;;
46363;SDS011;32071;49.036;9.344;2024-03-23T07:51:39;6.20;;;3.40;;
46363;SDS011;32071;49.036;9.344;2024-03-23T07:54:06;4.57;;;2.90;;
46363;SDS011;32071;49.036;9.344;2024-03-23T07:56:31;2.40;;;2.20;;
46363;SDS011;32071;49.036;9.344;2024-03-23T07:58:57;3.27;;;2.67;;
46363;SDS011;32071;49.036;9.344;2024-03-23T08:01:23;5.97;;;3.27;;
46363;SDS011;32071;49.036;9.344;2024-03-23T08:03:49;2.90;;;1.87;;
46363;SDS011;32071;49.036;9.344;2024-03-23T08:06:18;2.97;;;2.60;;
46363;SDS011;32071;49.036;9.344;2024-03-23T08:08:49;1.87;;;1.70;;
46363;SDS011;32071;49.036;9.344;2024-03-23T08:11:24;2.63;;;2.17;;
46363;SDS011;32071;49.036;9.344;2024-03-23T08:13:50;1.50;;;1.40;;
46363;SDS011;32071;49.036;9.344;2024-03-23T08:16:16;2.53;;;1.80;;
46363;SDS011;32071;49.036;9.344;2024-03-23T08:18:41;1.70;;;1.60;;
46363;SDS011;32071;49.036;9.344;2024-03-23T08:21:07;1.80;;;1.70;;
46363;SDS011;32071;49.036;9.344;2024-03-23T08:23:33;1.73;;;1.30;;
46363;SDS011;32071;49.036;9.344;2024-03-23T08:28:38;2.60;;;1.50;;
46363;SDS011;32071;49.036;9.344;2024-03-23T08:31:07;2.13;;;1.40;;
46363;SDS011;32071;49.036;9.344;2024-03-23T08:33:34;2.33;;;1.50;;
46363;SDS011;32071;49.036;9.344;2024-03-23T08:36:01;3.23;;;1.50;;
46363;SDS011;32071;49.036;9.344;2024-03-23T08:38:28;2.07;;;1.30;;
46363;SDS011;32071;49.036;9.344;2024-03-23T08:43:27;6.20;;;2.10;;
46363;SDS011;32071;49.036;9.344;2024-03-23T08:46:06;2.00;;;1.60;;
46363;SDS011;32071;49.036;9.344;2024-03-23T08:48:37;2.10;;;1.90;;
46363;SDS011;32071;49.036;9.344;2024-03-23T08:51:04;4.13;;;1.93;;
46363;SDS011;32071;49.036;9.344;2024-03-23T08:53:30;3.03;;;1.80;;
46363;SDS011;32071;49.036;9.344;2024-03-23T08:55:56;3.20;;;2.20;;
46363;SDS011;32071;49.036;9.344;2024-03-23T08:58:23;4.20;;;2.43;;
46363;SDS011;32071;49.036;9.344;2024-03-23T09:00:50;3.63;;;2.57;;
46363;SDS011;32071;49.036;9.344;2024-03-23T09:03:16;4.47;;;2.07;;
46363;SDS011;32071;49.036;9.344;2024-03-23T09:05:42;3.90;;;2.40;;
46363;SDS011;32071;49.036;9.344;2024-03-23T09:08:08;4.73;;;2.30;;
46363;SDS011;32071;49.036;9.344;2024-03-23T09:10:40;4.50;;;1.97;;
46363;SDS011;32071;49.036;9.344;2024-03-23T09:13:06;6.77;;;2.60;;
46363;SDS011;32071;49.036;9.344;2024-03-23T09:15:35;4.50;;;2.97;;
46363;SDS011;32071;49.036;9.344;2024-03-23T09:18:02;7.10;;;2.13;;
46363;SDS011;32071;49.036;9.344;2024-03-23T09:20:28;4.90;;;2.10;;
46363;SDS011;32071;49.036;9.344;2024-03-23T09:22:58;8.33;;;3.07;;
46363;SDS011;32071;49.036;9.344;2024-03-23T09:25:24;5.90;;;2.87;;
46363;SDS011;32071;49.036;9.344;2024-03-23T09:27:51;8.63;;;3.17;;
46363;SDS011;32071;49.036;9.344;2024-03-23T09:30:17;5.57;;;2.63;;
46363;SDS011;32071;49.036;9.344;2024-03-23T09:32:43;3.87;;;2.60;;
46363;SDS011;32071;49.036;9.344;2024-03-23T09:35:09;6.20;;;3.03;;
46363;SDS011;32071;49.036;9.344;2024-03-23T09:37:35;7.43;;;2.80;;
46363;SDS011;32071;49.036;9.344;2024-03-23T09:40:01;8.17;;;3.50;;
46363;SDS011;32071;49.036;9.344;2024-03-23T09:42:28;6.77;;;2.93;;
46363;SDS011;32071;49.036;9.344;2024-03-23T09:44:53;4.50;;;3.20;;
46363;SDS011;32071;49.036;9.344;2024-03-23T09:47:22;6.87;;;3.07;;
46363;SDS011;32071;49.036;9.344;2024-03-23T09:49:49;6.13;;;3.10;;
46363;SDS011;32071;49.036;9.344;2024-03-23T09:52:17;10.33;;;3.97;;
46363;SDS011;32071;49.036;9.344;2024-03-23T09:54:42;7.10;;;3.00;;
46363;SDS011;32071;49.036;9.344;2024-03-23T09:57:08;5.63;;;2.87;;
46363;SDS011;32071;49.036;9.344;2024-03-23T09:59:35;6.07;;;3.07;;
46363;SDS011;32071;49.036;9.344;2024-03-23T10:02:01;9.43;;;3.00;;
46363;SDS011;32071;49.036;9.344;2024-03-23T10:04:37;6.93;;;2.90;;
46363;SDS011;32071;49.036;9.344;2024-03-23T10:07:36;7.87;;;2.57;;
46363;SDS011;32071;49.036;9.344;2024-03-23T10:09:55;4.87;;;3.13;;
46363;SDS011;32071;49.036;9.344;2024-03-23T10:12:22;5.40;;;2.60;;
46363;SDS011;32071;49.036;9.344;2024-03-23T10:14:48;4.77;;;2.70;;
46363;SDS011;32071;49.036;9.344;2024-03-23T10:17:15;4.67;;;2.57;;
46363;SDS011;32071;49.036;9.344;2024-03-23T10:19:45;9.33;;;3.37;;
46363;SDS011;32071;49.036;9.344;2024-03-23T10:22:13;3.93;;;2.63;;
46363;SDS011;32071;49.036;9.344;2024-03-23T10:24:43;5.27;;;3.43;;
46363;SDS011;32071;49.036;9.344;2024-03-23T10:27:09;8.23;;;4.97;;
46363;SDS011;32071;49.036;9.344;2024-03-23T10:29:34;6.50;;;4.17;;
46363;SDS011;32071;49.036;9.344;2024-03-23T10:32:16;7.17;;;3.70;;
46363;SDS011;32071;49.036;9.344;2024-03-23T10:34:42;6.10;;;3.50;;
46363;SDS011;32071;49.036;9.344;2024-03-23T10:37:08;7.20;;;3.17;;
46363;SDS011;32071;49.036;9.344;2024-03-23T10:39:36;10.00;;;4.67;;
46363;SDS011;32071;49.036;9.344;2024-03-23T10:42:06;5.13;;;3.10;;
46363;SDS011;32071;49.036;9.344;2024-03-23T10:44:33;7.30;;;3.73;;
46363;SDS011;32071;49.036;9.344;2024-03-23T10:47:03;7.63;;;4.13;;
46363;SDS011;32071;49.036;9.344;2024-03-23T10:49:34;7.80;;;3.53;;
46363;SDS011;32071;49.036;9.344;2024-03-23T10:52:01;6.27;;;3.73;;
46363;SDS011;32071;49.036;9.344;2024-03-23T10:54:28;4.77;;;2.70;;
46363;SDS011;32071;49.036;9.344;2024-03-23T10:57:13;3.77;;;3.03;;
46363;SDS011;32071;49.036;9.344;2024-03-23T10:59:43;5.40;;;3.40;;
46363;SDS011;32071;49.036;9.344;2024-03-23T11:02:19;6.30;;;3.47;;
46363;SDS011;32071;49.036;9.344;2024-03-23T11:04:46;7.47;;;3.70;;
46363;SDS011;32071;49.036;9.344;2024-03-23T11:09:52;8.10;;;3.50;;
46363;SDS011;32071;49.036;9.344;2024-03-23T11:14:53;11.60;;;4.87;;
46363;SDS011;32071;49.036;9.344;2024-03-23T11:18:02;8.03;;;4.43;;
46363;SDS011;32071;49.036;9.344;2024-03-23T11:20:35;7.70;;;4.73;;
46363;SDS011;32071;49.036;9.344;2024-03-23T11:23:01;10.60;;;4.20;;
46363;SDS011;32071;49.036;9.344;2024-03-23T11:25:28;11.60;;;5.93;;
46363;SDS011;32071;49.036;9.344;2024-03-23T11:27:54;10.23;;;5.93;;
46363;SDS011;32071;49.036;9.344;2024-03-23T11:30:25;6.20;;;4.00;;
46363;SDS011;32071;49.036;9.344;2024-03-23T11:32:55;4.80;;;3.70;;
46363;SDS011;32071;49.036;9.344;2024-03-23T11:38:09;6.97;;;3.70;;
46363;SDS011;32071;49.036;9.344;2024-03-23T11:40:36;5.33;;;3.87;;
46363;SDS011;32071;49.036;9.344;2024-03-23T11:43:05;8.20;;;4.37;;
46363;SDS011;32071;49.036;9.344;2024-03-23T11:45:36;7.90;;;4.27;;
46363;SDS011;32071;49.036;9.344;2024-03-23T11:50:32;9.13;;;4.17;;
46363;SDS011;32071;49.036;9.344;2024-03-23T11:53:08;7.10;;;4.23;;
46363;SDS011;32071;49.036;9.344;2024-03-23T11:55:41;11.53;;;4.40;;
46363;SDS011;32071;49.036;9.344;2024-03-23T11:58:15;8.50;;;4.13;;
46363;SDS011;32071;49.036;9.344;2024-03-23T12:00:42;9.90;;;4.87;;
46363;SDS011;32071;49.036;9.344;2024-03-23T12:03:13;8.63;;;4.80;;
46363;SDS011;32071;49.036;9.344;2024-03-23T12:05:41;8.00;;;4.73;;
46363;SDS011;32071;49.036;9.344;2024-03-23T12:08:16;10.30;;;5.73;;
46363;SDS011;32071;49.036;9.344;2024-03-23T12:10:49;6.40;;;5.00;;
46363;SDS011;32071;49.036;9.344;2024-03-23T12:13:19;7.50;;;4.70;;
46363;SDS011;32071;49.036;9.344;2024-03-23T12:15:49;9.03;;;5.30;;
46363;SDS011;32071;49.036;9.344;2024-03-23T12:18:16;13.10;;;6.17;;
46363;SDS011;32071;49.036;9.344;2024-03-23T12:20:42;11.93;;;4.90;;
46363;SDS011;32071;49.036;9.344;2024-03-23T12:23:08;3.23;;;2.80;;
46363;SDS011;32071;49.036;9.344;2024-03-23T12:25:36;8.47;;;3.17;;
46363;SDS011;32071;49.036;9.344;2024-03-23T12:28:03;3.87;;;2.83;;
46363;SDS011;32071;49.036;9.344;2024-03-23T12:30:31;3.37;;;2.20;;
46363;SDS011;32071;49.036;9.344;2024-03-23T12:33:01;3.47;;;2.20;;
46363;SDS011;32071;49.036;9.344;2024-03-23T12:35:28;4.37;;;2.03;;
46363;SDS011;32071;49.036;9.344;2024-03-23T12:37:54;6.10;;;2.20;;
46363;SDS011;32071;49.036;9.344;2024-03-23T12:40:20;5.80;;;2.67;;
46363;SDS011;32071;49.036;9.344;2024-03-23T12:42:46;4.33;;;1.83;;
46363;SDS011;32071;49.036;9.344;2024-03-23T12:45:11;2.97;;;1.87;;
46363;SDS011;32071;49.036;9.344;2024-03-23T12:47:38;3.70;;;2.30;;
46363;SDS011;32071;49.036;9.344;2024-03-23T12:50:03;2.60;;;1.80;;
46363;SDS011;32071;49.036;9.344;2024-03-23T12:52:30;3.53;;;1.97;;
46363;SDS011;32071;49.036;9.344;2024-03-23T12:54:56;5.30;;;2.07;;
46363;SDS011;32071;49.036;9.344;2024-03-23T12:57:23;2.97;;;2.10;;
46363;SDS011;32071;49.036;9.344;2024-03-23T12:59:49;2.13;;;1.70;;
46363;SDS011;32071;49.036;9.344;2024-03-23T13:02:17;3.60;;;1.83;;
46363;SDS011;32071;49.036;9.344;2024-03-23T13:04:44;5.43;;;1.73;;
46363;SDS011;32071;49.036;9.344;2024-03-23T13:07:10;3.10;;;2.30;;
46363;SDS011;32071;49.036;9.344;2024-03-23T13:09:36;7.37;;;2.70;;
46363;SDS011;32071;49.036;9.344;2024-03-23T13:12:02;6.40;;;2.47;;
46363;SDS011;32071;49.036;9.344;2024-03-23T13:14:29;5.03;;;2.63;;
46363;SDS011;32071;49.036;9.344;2024-03-23T13:16:54;5.83;;;2.50;;
46363;SDS011;32071;49.036;9.344;2024-03-23T13:19:20;7.43;;;2.40;;
46363;SDS011;32071;49.036;9.344;2024-03-23T13:21:45;5.80;;;2.50;;
46363;SDS011;32071;49.036;9.344;2024-03-23T13:24:11;3.63;;;2.03;;
46363;SDS011;32071;49.036;9.344;2024-03-23T13:26:36;9.00;;;2.70;;
46363;SDS011;32071;49.036;9.344;2024-03-23T13:29:02;3.90;;;2.37;;
46363;SDS011;32071;49.036;9.344;2024-03-23T13:31:27;5.30;;;2.00;;
46363;SDS011;32071;49.036;9.344;2024-03-23T13:33:53;3.87;;;2.70;;
46363;SDS011;32071;49.036;9.344;2024-03-23T13:36:20;4.60;;;2.10;;
46363;SDS011;32071;49.036;9.344;2024-03-23T13:38:46;5.53;;;2.20;;
46363;SDS011;32071;49.036;9.344;2024-03-23T13:41:12;5.97;;;2.73;;
46363;SDS011;32071;49.036;9.344;2024-03-23T13:43:37;1.73;;;1.63;;
46363;SDS011;32071;49.036;9.344;2024-03-23T13:46:04;2.93;;;1.60;;
46363;SDS011;32071;49.036;9.344;2024-03-23T13:48:29;2.00;;;1.67;;
46363;SDS011;32071;49.036;9.344;2024-03-23T13:51:01;3.90;;;1.80;;
46363;SDS011;32071;49.036;9.344;2024-03-23T13:53:29;2.10;;;1.87;;
46363;SDS011;32071;49.036;9.344;2024-03-23T13:55:56;6.63;;;2.83;;
46363;SDS011;32071;49.036;9.344;2024-03-23T13:58:22;1.90;;;1.67;;
46363;SDS011;32071;49.036;9.344;2024-03-23T14:00:50;3.13;;;1.20;;
46363;SDS011;32071;49.036;9.344;2024-03-23T14:03:16;3.67;;;1.80;;
46363;SDS011;32071;49.036;9.344;2024-03-23T14:05:43;1.83;;;1.10;;
46363;SDS011;32071;49.036;9.344;2024-03-23T14:08:09;7.60;;;1.67;;
46363;SDS011;32071;49.036;9.344;2024-03-23T14:10:36;2.50;;;1.40;;
46363;SDS011;32071;49.036;9.344;2024-03-23T14:13:05;5.97;;;1.80;;
46363;SDS011;32071;49.036;9.344;2024-03-23T14:15:30;2.50;;;1.33;;
46363;SDS011;32071;49.036;9.344;2024-03-23T14:17:56;3.33;;;1.50;;
46363;SDS011;32071;49.036;9.344;2024-03-23T14:20:22;3.10;;;2.00;;
46363;SDS011;32071;49.036;9.344;2024-03-23T14:22:48;4.77;;;1.97;;
46363;SDS011;32071;49.036;9.344;2024-03-23T14:25:14;4.20;;;1.97;;
46363;SDS011;32071;49.036;9.344;2024-03-23T14:27:40;3.60;;;1.83;;
46363;SDS011;32071;49.036;9.344;2024-03-23T14:30:08;2.80;;;1.63;;
46363;SDS011;32071;49.036;9.344;2024-03-23T14:32:34;3.67;;;1.67;;
46363;SDS011;32071;49.036;9.344;2024-03-23T14:35:01;4.07;;;1.70;;
46363;SDS011;32071;49.036;9.344;2024-03-23T14:37:26;5.60;;;2.07;;
46363;SDS011;32071;49.036;9.344;2024-03-23T14:39:52;4.50;;;1.47;;
46363;SDS011;32071;49.036;9.344;2024-03-23T14:42:18;1.37;;;1.10;;
46363;SDS011;32071;49.036;9.344;2024-03-23T14:44:43;2.87;;;1.27;;
46363;SDS011;32071;49.036;9.344;2024-03-23T14:47:09;5.00;;;1.47;;
46363;SDS011;32071;49.036;9.344;2024-03-23T14:49:34;2.60;;;1.13;;
46363;SDS011;32071;49.036;9.344;2024-03-23T14:52:00;1.57;;;1.47;;
46363;SDS011;32071;49.036;9.344;2024-03-23T14:54:26;1.37;;;1.27;;
46363;SDS011;32071;49.036;9.344;2024-03-23T14:56:52;2.63;;;1.30;;
46363;SDS011;32071;49.036;9.344;2024-03-23T14:59:17;2.30;;;1.20;;
46363;SDS011;32071;49.036;9.344;2024-03-23T15:01:44;6.90;;;1.47;;
46363;SDS011;32071;49.036;9.344;2024-03-23T15:04:10;2.10;;;1.07;;
46363;SDS011;32071;49.036;9.344;2024-03-23T15:06:35;3.20;;;1.50;;
46363;SDS011;32071;49.036;9.344;2024-03-23T15:09:01;2.23;;;0.97;;
46363;SDS011;32071;49.036;9.344;2024-03-23T15:11:27;3.57;;;1.30;;
46363;SDS011;32071;49.036;9.344;2024-03-23T15:13:52;3.53;;;1.40;;
46363;SDS011;32071;49.036;9.344;2024-03-23T15:16:18;1.23;;;0.93;;
46363;SDS011;32071;49.036;9.344;2024-03-23T15:18:46;3.60;;;0.80;;
46363;SDS011;32071;49.036;9.344;2024-03-23T15:21:12;1.00;;;0.90;;
46363;SDS011;32071;49.036;9.344;2024-03-23T15:23:39;1.20;;;0.80;;
46363;SDS011;32071;49.036;9.344;2024-03-23T15:26:04;1.63;;;0.90;;
46363;SDS011;32071;49.036;9.344;2024-03-23T15:28:33;1.90;;;1.30;;
46363;SDS011;32071;49.036;9.344;2024-03-23T15:31:22;1.10;;;0.97;;
46363;SDS011;32071;49.036;9.344;2024-03-23T15:33:48;1.23;;;1.00;;
46363;SDS011;32071;49.036;9.344;2024-03-23T15:36:13;1.33;;;0.80;;
46363;SDS011;32071;49.036;9.344;2024-03-23T15:38:39;4.10;;;0.90;;
46363;SDS011;32071;49.036;9.344;2024-03-23T15:41:05;1.53;;;0.83;;
46363;SDS011;32071;49.036;9.344;2024-03-23T15:43:31;0.93;;;0.90;;
46363;SDS011;32071;49.036;9.344;2024-03-23T15:45:57;2.07;;;0.93;;
46363;SDS011;32071;49.036;9.344;2024-03-23T15:48:27;2.00;;;1.37;;
46363;SDS011;32071;49.036;9.344;2024-03-23T15:50:55;1.20;;;0.80;;